createdAt,value
2018-08-04T00:01:37.441Z,40.43
2018-08-04T00:04:04.128Z,40.35
2018-08-04T00:06:30.780Z,40.40
2018-08-04T00:08:57.439Z,40.38
2018-08-04T00:11:24.100Z,40.48
2018-08-04T00:13:50.763Z,40.58
2018-08-04T00:16:17.414Z,40.56
2018-08-04T00:18:44.075Z,40.58
2018-08-04T00:21:10.784Z,40.61
2018-08-04T00:23:37.434Z,40.61
2018-08-04T00:26:04.084Z,40.57
2018-08-04T00:28:31.189Z,40.80
2018-08-04T00:30:57.845Z,40.79
2018-08-04T00:33:24.505Z,40.74
2018-08-04T00:35:51.169Z,40.83
2018-08-04T00:38:17.822Z,40.91
2018-08-04T00:40:44.480Z,40.95
2018-08-04T00:43:11.176Z,41.03
2018-08-04T00:45:37.878Z,41.14
2018-08-04T00:48:04.589Z,41.16
2018-08-04T00:50:31.258Z,41.08
2018-08-04T00:52:57.966Z,41.15
2018-08-04T00:55:24.609Z,41.28
2018-08-04T00:57:51.268Z,41.16
2018-08-04T01:00:17.936Z,41.33
2018-08-04T01:02:44.574Z,41.32
2018-08-04T01:05:11.231Z,41.23
2018-08-04T01:07:37.982Z,41.34
2018-08-04T01:10:04.687Z,41.39
2018-08-04T01:12:31.337Z,41.50
2018-08-04T01:14:57.996Z,41.36
2018-08-04T01:17:24.717Z,41.46
2018-08-04T01:19:51.383Z,41.44
2018-08-04T01:22:18.030Z,41.44
2018-08-04T01:24:44.731Z,41.53
2018-08-04T01:27:11.392Z,41.65
2018-08-04T01:29:38.039Z,41.63
2018-08-04T01:32:04.708Z,41.64
2018-08-04T01:34:31.406Z,41.66
2018-08-04T01:36:58.106Z,41.73
2018-08-04T01:39:24.760Z,41.81
2018-08-04T01:41:51.487Z,41.88
2018-08-04T01:44:18.129Z,41.87
2018-08-04T01:46:44.773Z,41.83
2018-08-04T01:49:11.444Z,41.79
2018-08-04T01:51:38.142Z,41.83
2018-08-04T01:54:04.789Z,41.93
2018-08-04T01:56:31.490Z,41.89
2018-08-04T01:58:58.132Z,41.93
2018-08-04T02:01:24.793Z,42.01
2018-08-04T02:03:51.463Z,41.92
2018-08-04T02:06:18.158Z,42.04
2018-08-04T02:08:44.803Z,42.09
2018-08-04T02:11:11.485Z,41.94
2018-08-04T02:13:38.131Z,42.17
2018-08-04T02:16:04.803Z,42.16
2018-08-04T02:18:31.469Z,42.21
2018-08-04T02:20:58.172Z,42.20
2018-08-04T02:23:24.858Z,42.22
2018-08-04T02:25:51.512Z,42.24
2018-08-04T02:28:18.161Z,42.30
2018-08-04T02:30:44.822Z,42.42
2018-08-04T02:33:11.503Z,42.46
2018-08-04T02:35:38.237Z,42.26
2018-08-04T02:38:04.887Z,42.31
2018-08-04T02:40:31.537Z,42.36
2018-08-04T02:42:58.217Z,42.38
2018-08-04T02:45:24.930Z,42.38
2018-08-04T02:47:51.658Z,42.61
2018-08-04T02:50:18.372Z,42.62
2018-08-04T02:52:45.029Z,42.65
2018-08-04T02:55:11.686Z,42.71
2018-08-04T02:57:38.334Z,42.73
2018-08-04T03:00:04.987Z,42.68
2018-08-04T03:02:31.644Z,42.51
2018-08-04T03:04:58.303Z,42.66
2018-08-04T03:07:25.006Z,42.74
2018-08-04T03:09:51.653Z,42.88
2018-08-04T03:12:18.304Z,42.77
2018-08-04T03:14:44.968Z,42.80
2018-08-04T03:17:11.618Z,42.89
2018-08-04T03:19:38.320Z,42.77
2018-08-04T03:22:05.070Z,43.01
2018-08-04T03:24:31.780Z,42.90
2018-08-04T03:26:58.422Z,42.91
2018-08-04T03:29:25.209Z,42.92
2018-08-04T03:31:51.867Z,43.02
2018-08-04T03:34:18.517Z,42.98
2018-08-04T03:36:45.187Z,43.06
2018-08-04T03:39:11.897Z,43.05
2018-08-04T03:41:38.564Z,43.10
2018-08-04T03:44:05.206Z,43.09
2018-08-04T03:46:31.867Z,42.95
2018-08-04T03:48:58.559Z,42.93
2018-08-04T03:51:25.239Z,42.93
2018-08-04T03:53:51.877Z,42.90
2018-08-04T03:56:18.562Z,42.86
2018-08-04T03:58:45.216Z,42.98
2018-08-04T04:01:11.843Z,42.74
2018-08-04T04:03:38.478Z,42.76
2018-08-04T04:06:05.159Z,42.81
2018-08-04T04:08:31.832Z,42.51
2018-08-04T04:10:58.524Z,42.20
2018-08-04T04:13:25.155Z,42.26
2018-08-04T04:15:51.804Z,42.06
2018-08-04T04:18:18.431Z,41.59
2018-08-04T04:20:45.130Z,41.19
2018-08-04T04:23:11.755Z,41.01
2018-08-04T04:25:38.402Z,40.63
2018-08-04T04:28:05.074Z,40.33
2018-08-04T04:30:31.706Z,40.04
2018-08-04T04:32:58.348Z,39.91
2018-08-04T04:35:25.004Z,39.32
2018-08-04T04:37:51.776Z,38.85
2018-08-04T04:40:18.449Z,38.78
2018-08-04T04:42:45.053Z,38.41
2018-08-04T04:45:11.703Z,38.48
2018-08-04T04:47:38.343Z,38.13
2018-08-04T04:50:05.032Z,38.10
2018-08-04T04:52:31.682Z,37.63
2018-08-04T04:54:58.315Z,37.48
2018-08-04T04:57:24.992Z,37.02
2018-08-04T04:59:51.633Z,37.02
2018-08-04T05:02:18.291Z,36.87
2018-08-04T05:04:44.935Z,36.62
2018-08-04T05:07:11.608Z,36.56
2018-08-04T05:09:38.249Z,36.37
2018-08-04T05:12:04.882Z,36.27
2018-08-04T05:14:31.576Z,36.19
2018-08-04T05:16:58.217Z,36.15
2018-08-04T05:19:24.986Z,35.97
2018-08-04T05:21:51.676Z,35.89
2018-08-04T05:24:18.312Z,35.77
2018-08-04T05:26:44.947Z,35.57
2018-08-04T05:29:11.641Z,35.74
2018-08-04T05:31:38.371Z,35.45
2018-08-04T05:34:04.998Z,35.50
2018-08-04T05:36:31.664Z,35.42
2018-08-04T05:38:58.281Z,35.31
2018-08-04T05:41:24.918Z,35.30
2018-08-04T05:43:51.637Z,35.10
2018-08-04T05:46:18.279Z,35.23
2018-08-04T05:48:44.910Z,35.18
2018-08-04T05:51:11.546Z,35.19
2018-08-04T05:53:38.225Z,34.98
2018-08-04T05:56:04.915Z,35.20
2018-08-04T05:58:31.550Z,35.46
2018-08-04T06:00:58.286Z,35.43
2018-08-04T06:03:24.966Z,35.48
2018-08-04T06:05:51.602Z,35.63
2018-08-04T06:08:18.243Z,35.78
2018-08-04T06:10:44.892Z,35.78
2018-08-04T06:13:11.570Z,35.75
2018-08-04T06:15:38.202Z,35.82
2018-08-04T06:18:04.871Z,35.90
2018-08-04T06:20:31.508Z,36.19
2018-08-04T06:22:58.142Z,36.49
2018-08-04T06:25:24.787Z,36.92
2018-08-04T06:27:51.416Z,37.12
2018-08-04T06:30:18.092Z,37.31
2018-08-04T06:32:44.728Z,37.29
2018-08-04T06:35:11.407Z,37.30
2018-08-04T06:37:38.041Z,37.30
2018-08-04T06:40:04.695Z,37.46
2018-08-04T06:42:31.344Z,37.44
2018-08-04T06:44:58.011Z,37.44
2018-08-04T06:47:24.698Z,37.42
2018-08-04T06:49:51.327Z,37.51
2018-08-04T06:52:17.963Z,37.73
2018-08-04T06:54:44.613Z,37.59
2018-08-04T06:57:11.307Z,37.63
2018-08-04T06:59:37.949Z,37.58
2018-08-04T07:02:04.590Z,37.52
2018-08-04T07:04:31.265Z,37.56
2018-08-04T07:06:57.928Z,37.51
2018-08-04T07:09:24.610Z,37.55
2018-08-04T07:11:51.265Z,37.54
2018-08-04T07:14:17.912Z,37.48
2018-08-04T07:16:44.593Z,37.63
2018-08-04T07:19:11.224Z,37.55
2018-08-04T07:21:37.900Z,37.57
2018-08-04T07:24:04.547Z,37.47
2018-08-04T07:26:31.184Z,37.46
2018-08-04T07:28:58.667Z,37.51
2018-08-04T07:31:25.224Z,37.54
2018-08-04T07:33:51.884Z,37.56
2018-08-04T07:36:18.566Z,37.42
2018-08-04T07:38:45.205Z,37.43
2018-08-04T07:41:11.879Z,37.28
2018-08-04T07:43:38.558Z,37.53
2018-08-04T07:46:05.209Z,37.28
2018-08-04T07:48:31.856Z,37.24
2018-08-04T07:50:58.558Z,37.29
2018-08-04T07:53:25.171Z,37.49
2018-08-04T07:55:51.834Z,37.31
2018-08-04T07:58:18.442Z,37.24
2018-08-04T08:00:45.082Z,37.29
2018-08-04T08:03:11.761Z,37.09
2018-08-04T08:05:38.398Z,37.25
2018-08-04T08:08:05.091Z,37.08
2018-08-04T08:10:31.834Z,37.07
2018-08-04T08:12:58.438Z,36.98
2018-08-04T08:15:25.107Z,37.13
2018-08-04T08:17:51.745Z,37.48
2018-08-04T08:20:18.420Z,37.55
2018-08-04T08:22:45.062Z,37.98
2018-08-04T08:25:11.738Z,37.82
2018-08-04T08:27:38.378Z,37.67
2018-08-04T08:30:05.065Z,37.30
2018-08-04T08:32:31.815Z,37.17
2018-08-04T08:34:58.482Z,36.70
2018-08-04T08:37:25.118Z,36.76
2018-08-04T08:39:51.771Z,36.93
2018-08-04T08:42:18.438Z,37.17
2018-08-04T08:44:45.109Z,37.36
2018-08-04T08:47:11.767Z,37.31
2018-08-04T08:49:38.435Z,36.97
2018-08-04T08:52:05.069Z,36.61
2018-08-04T08:54:31.702Z,36.38
2018-08-04T08:56:58.389Z,36.07
2018-08-04T08:59:25.024Z,35.89
2018-08-04T09:01:51.660Z,35.77
2018-08-04T09:04:18.298Z,35.82
2018-08-04T09:06:44.933Z,35.68
2018-08-04T09:09:11.624Z,35.49
2018-08-04T09:11:38.258Z,35.41
2018-08-04T09:14:04.992Z,35.30
2018-08-04T09:16:31.626Z,35.05
2018-08-04T09:18:58.385Z,35.95
2018-08-04T09:21:25.036Z,35.92
2018-08-04T09:23:51.750Z,36.04
2018-08-04T09:26:18.380Z,35.68
2018-08-04T09:28:45.033Z,35.31
2018-08-04T09:31:11.698Z,35.33
2018-08-04T09:33:38.362Z,35.02
2018-08-04T09:36:05.002Z,34.99
2018-08-04T09:38:31.666Z,34.56
2018-08-04T09:40:58.317Z,34.76
2018-08-04T09:43:25.022Z,34.57
2018-08-04T09:45:51.662Z,34.40
2018-08-04T09:48:18.312Z,34.59
2018-08-04T09:50:44.960Z,34.21
2018-08-04T09:53:11.675Z,34.25
2018-08-04T09:55:38.311Z,34.12
2018-08-04T09:58:04.953Z,34.00
2018-08-04T10:00:31.594Z,34.12
2018-08-04T10:02:58.222Z,33.99
2018-08-04T10:05:24.897Z,33.87
2018-08-04T10:07:51.535Z,33.77
2018-08-04T10:10:18.218Z,33.73
2018-08-04T10:12:44.855Z,33.77
2018-08-04T10:15:11.504Z,33.50
2018-08-04T10:17:38.190Z,33.31
2018-08-04T10:20:04.868Z,33.44
2018-08-04T10:22:31.513Z,33.25
2018-08-04T10:24:58.166Z,33.25
2018-08-04T10:27:24.802Z,33.16
2018-08-04T10:29:51.502Z,33.05
2018-08-04T10:32:18.211Z,33.16
2018-08-04T10:34:44.778Z,32.91
2018-08-04T10:37:11.471Z,32.94
2018-08-04T10:39:38.124Z,32.96
2018-08-04T10:42:04.756Z,32.78
2018-08-04T10:44:31.453Z,32.90
2018-08-04T10:46:58.169Z,32.66
2018-08-04T10:49:24.810Z,32.65
2018-08-04T10:51:51.457Z,32.79
2018-08-04T10:54:18.109Z,32.59
2018-08-04T10:56:44.786Z,32.55
2018-08-04T10:59:11.425Z,32.50
2018-08-04T11:01:40.204Z,32.40
2018-08-04T11:04:04.708Z,32.51
2018-08-04T11:06:31.411Z,32.62
2018-08-04T11:08:58.091Z,32.23
2018-08-04T11:11:24.717Z,32.47
2018-08-04T11:13:51.439Z,32.27
2018-08-04T11:16:18.097Z,32.26
2018-08-04T11:18:44.790Z,32.27
2018-08-04T11:21:11.423Z,32.17
2018-08-04T11:23:38.116Z,32.29
2018-08-04T11:26:04.761Z,32.23
2018-08-04T11:28:31.436Z,32.07
2018-08-04T11:30:58.095Z,32.13
2018-08-04T11:33:24.746Z,31.95
2018-08-04T11:35:51.394Z,31.92
2018-08-04T11:38:18.054Z,32.05
2018-08-04T11:40:44.686Z,31.97
2018-08-04T11:43:11.391Z,31.89
2018-08-04T11:45:38.118Z,32.01
2018-08-04T11:48:04.690Z,31.81
2018-08-04T11:50:31.380Z,31.89
2018-08-04T11:52:58.016Z,31.85
2018-08-04T11:55:24.653Z,31.73
2018-08-04T11:57:51.301Z,31.81
2018-08-04T12:00:17.936Z,31.64
2018-08-04T12:02:44.562Z,31.59
2018-08-04T12:05:11.216Z,31.81
2018-08-04T12:07:39.211Z,31.58
2018-08-04T12:10:04.487Z,31.72
2018-08-04T12:12:31.178Z,32.01
2018-08-04T12:14:57.801Z,32.33
2018-08-04T12:17:24.460Z,32.96
2018-08-04T12:19:51.082Z,33.23
2018-08-04T12:22:17.723Z,33.17
2018-08-04T12:24:44.361Z,32.94
2018-08-04T12:27:11.002Z,32.82
2018-08-04T12:29:37.661Z,32.59
2018-08-04T12:32:04.294Z,32.72
2018-08-04T12:34:30.932Z,32.43
2018-08-04T12:36:57.590Z,32.31
2018-08-04T12:39:24.255Z,32.45
2018-08-04T12:41:50.890Z,32.19
2018-08-04T12:44:17.530Z,32.14
2018-08-04T12:46:44.163Z,32.18
2018-08-04T12:49:12.054Z,32.13
2018-08-04T12:51:37.478Z,31.93
2018-08-04T12:54:04.084Z,31.93
2018-08-04T12:56:30.729Z,31.99
2018-08-04T12:58:57.366Z,31.85
2018-08-04T13:01:24.002Z,31.70
2018-08-04T13:03:50.662Z,31.88
2018-08-04T13:06:17.297Z,31.63
2018-08-04T13:08:43.938Z,31.62
2018-08-04T13:11:10.572Z,31.65
2018-08-04T13:13:37.208Z,31.67
2018-08-04T13:16:03.861Z,31.49
2018-08-04T13:18:30.512Z,31.48
2018-08-04T13:20:57.147Z,31.59
2018-08-04T13:23:23.802Z,31.44
2018-08-04T13:25:50.453Z,31.32
2018-08-04T13:28:17.109Z,31.51
2018-08-04T13:30:43.747Z,31.30
2018-08-04T13:33:10.431Z,31.31
2018-08-04T13:35:37.054Z,31.42
2018-08-04T13:38:03.688Z,31.24
2018-08-04T13:40:30.353Z,31.26
2018-08-04T13:42:57.011Z,31.26
2018-08-04T13:45:23.627Z,31.10
2018-08-04T13:47:50.272Z,31.13
2018-08-04T13:50:16.937Z,31.19
2018-08-04T13:52:43.600Z,31.12
2018-08-04T13:55:10.210Z,31.20
2018-08-04T13:57:36.843Z,31.17
2018-08-04T14:00:03.521Z,31.13
2018-08-04T14:02:30.120Z,31.05
2018-08-04T14:04:56.746Z,31.18
2018-08-04T14:07:23.390Z,31.12
2018-08-04T14:09:50.041Z,30.95
2018-08-04T14:12:16.690Z,30.98
2018-08-04T14:14:43.324Z,31.09
2018-08-04T14:17:09.972Z,31.09
2018-08-04T14:19:36.679Z,30.97
2018-08-04T14:22:03.262Z,31.15
2018-08-04T14:24:29.922Z,31.09
2018-08-04T14:26:56.601Z,30.92
2018-08-04T14:29:23.284Z,30.91
2018-08-04T14:31:49.923Z,31.13
2018-08-04T14:34:16.588Z,30.97
2018-08-04T14:36:43.221Z,31.02
2018-08-04T14:39:09.863Z,30.79
2018-08-04T14:41:36.508Z,30.94
2018-08-04T14:44:03.235Z,30.90
2018-08-04T14:46:29.913Z,30.74
2018-08-04T14:48:56.528Z,30.81
2018-08-04T14:51:23.171Z,30.71
2018-08-04T14:53:49.804Z,30.86
2018-08-04T14:56:16.454Z,30.72
2018-08-04T14:58:43.096Z,30.78
2018-08-04T15:01:09.733Z,30.73
2018-08-04T15:03:36.370Z,30.89
2018-08-04T15:06:03.007Z,30.89
2018-08-04T15:08:29.644Z,30.76
2018-08-04T15:10:56.278Z,30.78
2018-08-04T15:13:22.947Z,30.73
2018-08-04T15:15:49.629Z,30.71
2018-08-04T15:18:16.192Z,30.91
2018-08-04T15:20:42.827Z,30.75
2018-08-04T15:23:09.474Z,30.68
2018-08-04T15:25:36.103Z,30.64
2018-08-04T15:28:02.753Z,30.67
2018-08-04T15:30:29.384Z,30.65
2018-08-04T15:32:56.060Z,30.58
2018-08-04T15:35:22.672Z,30.81
2018-08-04T15:37:49.315Z,30.66
2018-08-04T15:40:15.954Z,30.57
2018-08-04T15:42:42.590Z,30.59
2018-08-04T15:45:09.228Z,30.54
2018-08-04T15:47:35.878Z,30.54
2018-08-04T15:50:02.525Z,30.52
2018-08-04T15:52:29.194Z,30.45
2018-08-04T15:54:55.844Z,30.42
2018-08-04T15:57:22.481Z,30.43
2018-08-04T15:59:49.119Z,30.39
2018-08-04T16:02:15.778Z,30.56
2018-08-04T16:04:42.436Z,30.40
2018-08-04T16:07:09.143Z,30.45
2018-08-04T16:09:35.790Z,30.34
2018-08-04T16:12:02.422Z,30.33
2018-08-04T16:14:29.048Z,30.32
2018-08-04T16:16:55.695Z,30.30
2018-08-04T16:19:22.370Z,30.28
2018-08-04T16:21:49.008Z,30.27
2018-08-04T16:24:15.693Z,30.12
2018-08-04T16:26:42.295Z,30.20
2018-08-04T16:29:08.994Z,30.11
2018-08-04T16:31:35.653Z,30.14
2018-08-04T16:34:02.291Z,30.12
2018-08-04T16:36:28.941Z,30.17
2018-08-04T16:38:55.581Z,30.16
2018-08-04T16:41:22.224Z,30.25
2018-08-04T16:43:48.853Z,30.14
2018-08-04T16:46:15.490Z,30.13
2018-08-04T16:48:42.169Z,30.14
2018-08-04T16:51:08.811Z,30.03
2018-08-04T16:53:35.453Z,30.10
2018-08-04T16:56:02.100Z,30.03
2018-08-04T16:58:28.742Z,30.03
2018-08-04T17:00:55.366Z,29.97
2018-08-04T17:03:22.004Z,29.95
2018-08-04T17:05:48.635Z,29.97
2018-08-04T17:08:15.271Z,30.00
2018-08-04T17:10:41.964Z,29.94
2018-08-04T17:13:08.616Z,29.80
2018-08-04T17:15:35.247Z,29.88
2018-08-04T17:18:01.923Z,29.83
2018-08-04T17:20:28.537Z,29.76
2018-08-04T17:22:55.217Z,30.65
2018-08-04T17:25:21.855Z,31.35
2018-08-04T17:27:48.490Z,31.81
2018-08-04T17:30:15.121Z,31.82
2018-08-04T17:32:41.818Z,32.13
2018-08-04T17:35:08.496Z,31.85
2018-08-04T17:37:35.300Z,31.73
2018-08-04T17:40:01.820Z,31.84
2018-08-04T17:42:28.454Z,31.72
2018-08-04T17:44:55.113Z,31.64
2018-08-04T17:47:21.796Z,31.52
2018-08-04T17:49:48.428Z,31.51
2018-08-04T17:52:15.175Z,31.42
2018-08-04T17:54:41.803Z,31.39
2018-08-04T17:57:08.514Z,31.29
2018-08-04T17:59:35.091Z,31.34
2018-08-04T18:02:01.729Z,31.50
2018-08-04T18:04:28.367Z,31.20
2018-08-04T18:06:54.996Z,31.22
2018-08-04T18:09:21.703Z,31.21
2018-08-04T18:11:48.341Z,31.11
2018-08-04T18:14:14.976Z,31.07
2018-08-04T18:16:41.616Z,31.00
2018-08-04T18:19:08.253Z,30.91
2018-08-04T18:21:34.926Z,30.90
2018-08-04T18:24:01.609Z,30.89
2018-08-04T18:26:28.250Z,31.62
2018-08-04T18:28:54.885Z,32.74
2018-08-04T18:31:21.544Z,33.08
2018-08-04T18:33:48.181Z,33.02
2018-08-04T18:36:14.824Z,33.38
2018-08-04T18:38:41.881Z,33.39
2018-08-04T18:41:08.471Z,33.52
2018-08-04T18:43:35.143Z,33.84
2018-08-04T18:46:01.780Z,33.77
2018-08-04T18:48:28.468Z,33.84
2018-08-04T18:50:55.139Z,33.78
2018-08-04T18:53:21.773Z,33.85
2018-08-04T18:55:48.467Z,33.67
2018-08-04T18:58:15.110Z,33.96
2018-08-04T19:00:41.809Z,34.04
2018-08-04T19:03:08.512Z,34.14
2018-08-04T19:05:35.110Z,34.12
2018-08-04T19:08:01.794Z,34.28
2018-08-04T19:10:28.440Z,34.39
2018-08-04T19:12:55.066Z,34.43
2018-08-04T19:15:21.710Z,34.55
2018-08-04T19:17:48.450Z,34.60
2018-08-04T19:20:15.164Z,34.78
2018-08-04T19:22:41.812Z,34.88
2018-08-04T19:25:08.495Z,34.93
2018-08-04T19:27:35.131Z,35.00
2018-08-04T19:30:01.772Z,34.98
2018-08-04T19:32:28.454Z,35.13
2018-08-04T19:34:55.107Z,35.22
2018-08-04T19:37:21.752Z,35.21
2018-08-04T19:39:48.387Z,35.39
2018-08-04T19:42:15.033Z,35.33
2018-08-04T19:44:41.665Z,35.50
2018-08-04T19:47:08.336Z,35.52
2018-08-04T19:49:34.984Z,35.57
2018-08-04T19:52:01.612Z,35.61
2018-08-04T19:54:28.262Z,35.67
2018-08-04T19:56:54.914Z,35.65
2018-08-04T19:59:21.596Z,35.79
2018-08-04T20:01:48.227Z,35.80
2018-08-04T20:04:14.873Z,35.89
2018-08-04T20:06:42.952Z,35.95
2018-08-04T20:09:08.204Z,35.97
2018-08-04T20:11:34.872Z,36.02
2018-08-04T20:14:01.478Z,36.09
2018-08-04T20:16:28.107Z,36.10
2018-08-04T20:18:54.767Z,36.20
2018-08-04T20:21:21.406Z,36.16
2018-08-04T20:23:48.048Z,36.26
2018-08-04T20:26:14.772Z,36.32
2018-08-04T20:28:41.451Z,36.38
2018-08-04T20:31:08.086Z,36.45
2018-08-04T20:33:34.725Z,36.44
2018-08-04T20:36:01.396Z,36.46
2018-08-04T20:38:28.031Z,36.58
2018-08-04T20:40:54.682Z,36.62
2018-08-04T20:43:21.403Z,36.67
2018-08-04T20:45:48.039Z,36.66
2018-08-04T20:48:14.680Z,36.73
2018-08-04T20:50:41.321Z,36.83
2018-08-04T20:53:08.003Z,36.85
2018-08-04T20:55:35.894Z,36.84
2018-08-04T20:58:01.291Z,36.95
2018-08-04T21:00:27.917Z,36.99
2018-08-04T21:02:54.552Z,37.01
2018-08-04T21:05:21.200Z,37.00
2018-08-04T21:07:47.836Z,37.15
2018-08-04T21:10:14.529Z,37.13
2018-08-04T21:12:41.159Z,37.24
2018-08-04T21:15:07.908Z,37.24
2018-08-04T21:17:34.518Z,37.29
2018-08-04T21:20:01.149Z,37.28
2018-08-04T21:22:27.795Z,37.27
2018-08-04T21:24:54.532Z,37.34
2018-08-04T21:27:21.159Z,37.41
2018-08-04T21:29:47.811Z,37.50
2018-08-04T21:32:14.461Z,37.58
2018-08-04T21:34:41.096Z,37.54
2018-08-04T21:37:07.857Z,37.51
2018-08-04T21:39:34.548Z,37.70
2018-08-04T21:42:01.184Z,37.69
2018-08-04T21:44:27.898Z,37.80
2018-08-04T21:46:54.527Z,37.87
2018-08-04T21:49:21.213Z,37.84
2018-08-04T21:51:47.815Z,37.91
2018-08-04T21:54:14.452Z,37.88
2018-08-04T21:56:41.130Z,37.96
2018-08-04T21:59:07.780Z,38.07
2018-08-04T22:01:34.532Z,38.10
2018-08-04T22:04:01.105Z,38.02
2018-08-04T22:06:27.754Z,38.13
2018-08-04T22:08:54.404Z,38.13
2018-08-04T22:11:21.042Z,38.20
2018-08-04T22:13:47.681Z,38.30
2018-08-04T22:16:14.315Z,38.29
2018-08-04T22:18:40.996Z,38.39
2018-08-04T22:21:07.688Z,38.40
2018-08-04T22:23:34.602Z,38.43
2018-08-04T22:26:01.253Z,38.40
2018-08-04T22:28:27.889Z,38.40
2018-08-04T22:30:54.579Z,38.49
2018-08-04T22:33:21.253Z,38.52
2018-08-04T22:35:47.869Z,38.62
2018-08-04T22:38:14.509Z,38.58
2018-08-04T22:40:41.168Z,38.73
2018-08-04T22:43:07.828Z,38.60
2018-08-04T22:45:34.471Z,38.70
2018-08-04T22:48:01.191Z,38.70
2018-08-04T22:50:27.885Z,38.73
2018-08-04T22:52:54.523Z,38.78
2018-08-04T22:55:21.165Z,38.80
2018-08-04T22:57:47.798Z,38.94
2018-08-04T23:00:14.435Z,38.96
2018-08-04T23:02:41.072Z,38.97
2018-08-04T23:05:07.709Z,38.95
2018-08-04T23:07:34.343Z,39.06
2018-08-04T23:10:00.993Z,39.06
2018-08-04T23:12:27.628Z,39.13
2018-08-04T23:14:54.265Z,39.19
2018-08-04T23:17:20.951Z,39.29
2018-08-04T23:19:47.591Z,39.23
2018-08-04T23:22:14.272Z,39.25
2018-08-04T23:24:40.913Z,39.37
2018-08-04T23:27:07.603Z,39.29
2018-08-04T23:29:34.226Z,39.32
2018-08-04T23:32:00.854Z,39.36
2018-08-04T23:34:27.495Z,39.47
2018-08-04T23:36:54.129Z,39.41
2018-08-04T23:39:20.808Z,39.54
2018-08-04T23:41:47.445Z,39.56
2018-08-04T23:44:14.122Z,39.54
2018-08-04T23:46:40.769Z,39.51
2018-08-04T23:49:07.442Z,39.63
2018-08-04T23:51:34.077Z,39.58
2018-08-04T23:54:00.779Z,39.64
2018-08-04T23:56:27.454Z,39.66
2018-08-04T23:58:54.117Z,39.73
